sensor_id;sensor_type;location;lat;lon;timestamp;temperature;humidity
65573;SHT30;52214;50.940;13.996;2022-07-22T00:02:23;16.33;99.53
65573;SHT30;52214;50.940;13.996;2022-07-22T00:04:49;16.29;99.20
65573;SHT30;52214;50.940;13.996;2022-07-22T00:07:15;16.32;99.03
65573;SHT30;52214;50.940;13.996;2022-07-22T00:09:40;16.30;98.65
65573;SHT30;52214;50.940;13.996;2022-07-22T00:12:07;16.35;98.57
65573;SHT30;52214;50.940;13.996;2022-07-22T00:14:32;16.24;99.39
65573;SHT30;52214;50.940;13.996;2022-07-22T00:16:59;16.22;98.98
65573;SHT30;52214;50.940;13.996;2022-07-22T00:19:25;16.29;98.72
65573;SHT30;52214;50.940;13.996;2022-07-22T00:21:51;16.21;98.53
65573;SHT30;52214;50.940;13.996;2022-07-22T00:24:17;16.18;98.37
65573;SHT30;52214;50.940;13.996;2022-07-22T00:26:42;16.15;98.56
65573;SHT30;52214;50.940;13.996;2022-07-22T00:29:08;16.10;98.59
65573;SHT30;52214;50.940;13.996;2022-07-22T00:31:34;16.07;99.07
65573;SHT30;52214;50.940;13.996;2022-07-22T00:34:01;16.17;98.78
65573;SHT30;52214;50.940;13.996;2022-07-22T00:36:27;16.19;98.98
65573;SHT30;52214;50.940;13.996;2022-07-22T00:38:53;16.14;99.34
65573;SHT30;52214;50.940;13.996;2022-07-22T00:41:18;16.00;99.78
65573;SHT30;52214;50.940;13.996;2022-07-22T00:46:21;15.97;99.85
65573;SHT30;52214;50.940;13.996;2022-07-22T00:48:46;15.98;99.99
65573;SHT30;52214;50.940;13.996;2022-07-22T00:51:13;16.01;99.72
65573;SHT30;52214;50.940;13.996;2022-07-22T00:53:39;15.91;99.41
65573;SHT30;52214;50.940;13.996;2022-07-22T00:56:05;15.89;99.10
65573;SHT30;52214;50.940;13.996;2022-07-22T00:58:30;15.87;99.17
65573;SHT30;52214;50.940;13.996;2022-07-22T01:00:56;15.77;98.54
65573;SHT30;52214;50.940;13.996;2022-07-22T01:03:21;15.73;98.69
65573;SHT30;52214;50.940;13.996;2022-07-22T01:05:47;15.63;98.86
65573;SHT30;52214;50.940;13.996;2022-07-22T01:08:12;15.62;99.88
65573;SHT30;52214;50.940;13.996;2022-07-22T01:10:38;15.65;99.91
65573;SHT30;52214;50.940;13.996;2022-07-22T01:13:03;15.67;99.56
65573;SHT30;52214;50.940;13.996;2022-07-22T01:15:29;15.67;98.70
65573;SHT30;52214;50.940;13.996;2022-07-22T01:17:55;15.57;98.83
65573;SHT30;52214;50.940;13.996;2022-07-22T01:20:21;15.53;98.98
65573;SHT30;52214;50.940;13.996;2022-07-22T01:22:46;15.52;98.61
65573;SHT30;52214;50.940;13.996;2022-07-22T01:25:12;15.52;99.45
65573;SHT30;52214;50.940;13.996;2022-07-22T01:27:37;15.62;99.24
65573;SHT30;52214;50.940;13.996;2022-07-22T01:30:05;15.57;99.08
65573;SHT30;52214;50.940;13.996;2022-07-22T01:32:30;15.43;98.67
65573;SHT30;52214;50.940;13.996;2022-07-22T01:34:56;15.34;98.66
65573;SHT30;52214;50.940;13.996;2022-07-22T01:37:21;15.39;98.55
65573;SHT30;52214;50.940;13.996;2022-07-22T01:39:48;15.55;97.54
65573;SHT30;52214;50.940;13.996;2022-07-22T01:42:13;15.38;98.10
65573;SHT30;52214;50.940;13.996;2022-07-22T01:44:39;15.35;98.60
65573;SHT30;52214;50.940;13.996;2022-07-22T01:47:05;15.27;99.11
65573;SHT30;52214;50.940;13.996;2022-07-22T01:49:30;15.19;99.63
65573;SHT30;52214;50.940;13.996;2022-07-22T01:51:56;15.18;99.68
65573;SHT30;52214;50.940;13.996;2022-07-22T01:54:21;15.17;99.17
65573;SHT30;52214;50.940;13.996;2022-07-22T01:56:47;15.10;98.69
65573;SHT30;52214;50.940;13.996;2022-07-22T01:59:12;15.29;99.43
65573;SHT30;52214;50.940;13.996;2022-07-22T02:01:38;15.22;99.25
65573;SHT30;52214;50.940;13.996;2022-07-22T02:04:03;15.21;99.03
65573;SHT30;52214;50.940;13.996;2022-07-22T02:06:29;15.14;99.06
65573;SHT30;52214;50.940;13.996;2022-07-22T02:08:55;15.19;98.93
65573;SHT30;52214;50.940;13.996;2022-07-22T02:11:21;15.21;98.84
65573;SHT30;52214;50.940;13.996;2022-07-22T02:13:46;15.02;97.99
65573;SHT30;52214;50.940;13.996;2022-07-22T02:16:12;14.95;99.10
65573;SHT30;52214;50.940;13.996;2022-07-22T02:18:37;15.00;98.80
65573;SHT30;52214;50.940;13.996;2022-07-22T02:21:03;14.84;98.21
65573;SHT30;52214;50.940;13.996;2022-07-22T02:23:28;14.87;98.18
65573;SHT30;52214;50.940;13.996;2022-07-22T02:25:54;14.94;98.56
65573;SHT30;52214;50.940;13.996;2022-07-22T02:28:19;15.07;98.97
65573;SHT30;52214;50.940;13.996;2022-07-22T02:30:45;15.07;99.34
65573;SHT30;52214;50.940;13.996;2022-07-22T02:33:10;15.01;99.42
65573;SHT30;52214;50.940;13.996;2022-07-22T02:35:37;14.93;99.08
65573;SHT30;52214;50.940;13.996;2022-07-22T02:38:03;14.93;99.11
65573;SHT30;52214;50.940;13.996;2022-07-22T02:40:28;14.95;98.84
65573;SHT30;52214;50.940;13.996;2022-07-22T02:42:54;14.83;99.21
65573;SHT30;52214;50.940;13.996;2022-07-22T02:45:19;14.81;99.45
65573;SHT30;52214;50.940;13.996;2022-07-22T02:47:47;14.83;99.34
65573;SHT30;52214;50.940;13.996;2022-07-22T02:50:12;14.87;99.44
65573;SHT30;52214;50.940;13.996;2022-07-22T02:52:38;14.97;99.32
65573;SHT30;52214;50.940;13.996;2022-07-22T02:55:04;15.12;99.41
65573;SHT30;52214;50.940;13.996;2022-07-22T02:57:31;15.15;98.91
65573;SHT30;52214;50.940;13.996;2022-07-22T02:59:56;15.08;99.46
65573;SHT30;52214;50.940;13.996;2022-07-22T03:02:21;15.08;99.30
65573;SHT30;52214;50.940;13.996;2022-07-22T03:04:47;15.05;99.45
65573;SHT30;52214;50.940;13.996;2022-07-22T03:07:12;14.95;99.35
65573;SHT30;52214;50.940;13.996;2022-07-22T03:09:38;14.91;99.59
65573;SHT30;52214;50.940;13.996;2022-07-22T03:12:03;14.83;99.61
65573;SHT30;52214;50.940;13.996;2022-07-22T03:14:29;14.81;99.34
65573;SHT30;52214;50.940;13.996;2022-07-22T03:16:54;14.77;99.38
65573;SHT30;52214;50.940;13.996;2022-07-22T03:19:20;14.63;97.59
65573;SHT30;52214;50.940;13.996;2022-07-22T03:21:45;14.69;97.58
65573;SHT30;52214;50.940;13.996;2022-07-22T03:24:11;14.66;98.10
65573;SHT30;52214;50.940;13.996;2022-07-22T03:26:36;14.63;98.43
65573;SHT30;52214;50.940;13.996;2022-07-22T03:29:02;14.63;99.08
65573;SHT30;52214;50.940;13.996;2022-07-22T03:31:27;14.56;99.71
65573;SHT30;52214;50.940;13.996;2022-07-22T03:33:53;14.56;99.65
65573;SHT30;52214;50.940;13.996;2022-07-22T03:36:18;14.60;99.62
65573;SHT30;52214;50.940;13.996;2022-07-22T03:38:44;14.65;99.30
65573;SHT30;52214;50.940;13.996;2022-07-22T03:41:09;14.69;99.24
65573;SHT30;52214;50.940;13.996;2022-07-22T03:43:35;14.72;99.21
65573;SHT30;52214;50.940;13.996;2022-07-22T03:46:00;14.66;99.12
65573;SHT30;52214;50.940;13.996;2022-07-22T03:48:26;14.62;99.49
65573;SHT30;52214;50.940;13.996;2022-07-22T03:50:52;14.56;99.63
65573;SHT30;52214;50.940;13.996;2022-07-22T03:53:17;14.70;99.43
65573;SHT30;52214;50.940;13.996;2022-07-22T03:55:43;14.63;99.54
65573;SHT30;52214;50.940;13.996;2022-07-22T03:58:08;14.66;99.35
65573;SHT30;52214;50.940;13.996;2022-07-22T04:00:34;14.69;99.37
65573;SHT30;52214;50.940;13.996;2022-07-22T04:03:00;14.62;99.58
65573;SHT30;52214;50.940;13.996;2022-07-22T04:05:25;14.65;99.74
65573;SHT30;52214;50.940;13.996;2022-07-22T04:07:51;14.63;99.48
65573;SHT30;52214;50.940;13.996;2022-07-22T04:10:16;14.69;99.54
65573;SHT30;52214;50.940;13.996;2022-07-22T04:12:42;14.83;99.34
65573;SHT30;52214;50.940;13.996;2022-07-22T04:15:08;14.74;99.67
65573;SHT30;52214;50.940;13.996;2022-07-22T04:17:34;14.74;99.83
65573;SHT30;52214;50.940;13.996;2022-07-22T04:20:00;14.83;99.46
65573;SHT30;52214;50.940;13.996;2022-07-22T04:22:29;14.69;99.99
65573;SHT30;52214;50.940;13.996;2022-07-22T04:24:55;14.74;99.99
65573;SHT30;52214;50.940;13.996;2022-07-22T04:27:21;14.81;99.99
65573;SHT30;52214;50.940;13.996;2022-07-22T04:29:47;14.83;99.99
65573;SHT30;52214;50.940;13.996;2022-07-22T04:32:12;14.95;99.63
65573;SHT30;52214;50.940;13.996;2022-07-22T04:34:38;15.01;99.80
65573;SHT30;52214;50.940;13.996;2022-07-22T04:37:03;15.04;99.81
65573;SHT30;52214;50.940;13.996;2022-07-22T04:39:29;15.04;99.93
65573;SHT30;52214;50.940;13.996;2022-07-22T04:41:55;15.12;99.67
65573;SHT30;52214;50.940;13.996;2022-07-22T04:44:20;15.18;99.53
65573;SHT30;52214;50.940;13.996;2022-07-22T04:46:45;15.28;99.42
65573;SHT30;52214;50.940;13.996;2022-07-22T04:49:11;15.39;99.15
65573;SHT30;52214;50.940;13.996;2022-07-22T04:51:36;15.49;99.08
65573;SHT30;52214;50.940;13.996;2022-07-22T04:54:02;15.59;98.97
65573;SHT30;52214;50.940;13.996;2022-07-22T04:56:27;15.71;98.85
65573;SHT30;52214;50.940;13.996;2022-07-22T04:58:53;15.69;99.18
65573;SHT30;52214;50.940;13.996;2022-07-22T05:01:18;15.82;98.63
65573;SHT30;52214;50.940;13.996;2022-07-22T05:03:44;15.91;98.54
65573;SHT30;52214;50.940;13.996;2022-07-22T05:06:10;15.98;98.44
65573;SHT30;52214;50.940;13.996;2022-07-22T05:08:35;16.14;98.32
65573;SHT30;52214;50.940;13.996;2022-07-22T05:11:01;16.28;98.52
65573;SHT30;52214;50.940;13.996;2022-07-22T05:13:27;16.41;98.62
65573;SHT30;52214;50.940;13.996;2022-07-22T05:15:52;16.45;97.91
65573;SHT30;52214;50.940;13.996;2022-07-22T05:18:21;16.59;97.76
65573;SHT30;52214;50.940;13.996;2022-07-22T05:20:46;16.65;97.92
65573;SHT30;52214;50.940;13.996;2022-07-22T05:23:12;16.65;97.74
65573;SHT30;52214;50.940;13.996;2022-07-22T05:25:37;16.73;97.52
65573;SHT30;52214;50.940;13.996;2022-07-22T05:28:03;16.77;97.56
65573;SHT30;52214;50.940;13.996;2022-07-22T05:30:28;16.87;97.12
65573;SHT30;52214;50.940;13.996;2022-07-22T05:32:54;16.94;96.99
65573;SHT30;52214;50.940;13.996;2022-07-22T05:35:19;17.03;96.89
65573;SHT30;52214;50.940;13.996;2022-07-22T05:37:46;17.08;96.99
65573;SHT30;52214;50.940;13.996;2022-07-22T05:40:12;17.17;97.17
65573;SHT30;52214;50.940;13.996;2022-07-22T05:42:37;17.27;96.63
65573;SHT30;52214;50.940;13.996;2022-07-22T05:45:03;17.38;96.78
65573;SHT30;52214;50.940;13.996;2022-07-22T05:47:28;17.55;96.65
65573;SHT30;52214;50.940;13.996;2022-07-22T05:49:54;17.70;95.61
65573;SHT30;52214;50.940;13.996;2022-07-22T05:52:20;17.83;95.55
65573;SHT30;52214;50.940;13.996;2022-07-22T05:54:45;17.94;95.10
65573;SHT30;52214;50.940;13.996;2022-07-22T05:57:10;18.15;94.49
65573;SHT30;52214;50.940;13.996;2022-07-22T05:59:36;18.39;96.10
65573;SHT30;52214;50.940;13.996;2022-07-22T06:02:03;18.49;95.63
65573;SHT30;52214;50.940;13.996;2022-07-22T06:04:28;18.66;94.83
65573;SHT30;52214;50.940;13.996;2022-07-22T06:06:54;18.66;94.41
65573;SHT30;52214;50.940;13.996;2022-07-22T06:09:19;18.79;90.37
65573;SHT30;52214;50.940;13.996;2022-07-22T06:11:45;19.01;89.14
65573;SHT30;52214;50.940;13.996;2022-07-22T06:14:10;19.18;85.08
65573;SHT30;52214;50.940;13.996;2022-07-22T06:16:36;19.41;84.74
65573;SHT30;52214;50.940;13.996;2022-07-22T06:19:02;19.41;85.36
65573;SHT30;52214;50.940;13.996;2022-07-22T06:21:27;19.41;85.60
65573;SHT30;52214;50.940;13.996;2022-07-22T06:23:53;19.51;84.03
65573;SHT30;52214;50.940;13.996;2022-07-22T06:26:18;19.63;84.85
65573;SHT30;52214;50.940;13.996;2022-07-22T06:28:44;19.70;84.41
65573;SHT30;52214;50.940;13.996;2022-07-22T06:31:10;19.76;83.00
65573;SHT30;52214;50.940;13.996;2022-07-22T06:33:35;19.86;83.12
65573;SHT30;52214;50.940;13.996;2022-07-22T06:36:01;19.94;83.53
65573;SHT30;52214;50.940;13.996;2022-07-22T06:38:27;19.96;84.92
65573;SHT30;52214;50.940;13.996;2022-07-22T06:40:52;19.98;84.95
65573;SHT30;52214;50.940;13.996;2022-07-22T06:43:18;20.07;82.74
65573;SHT30;52214;50.940;13.996;2022-07-22T06:45:43;20.11;82.40
65573;SHT30;52214;50.940;13.996;2022-07-22T06:48:09;20.29;84.18
65573;SHT30;52214;50.940;13.996;2022-07-22T06:50:34;20.24;81.03
65573;SHT30;52214;50.940;13.996;2022-07-22T06:53:00;20.35;82.97
65573;SHT30;52214;50.940;13.996;2022-07-22T06:55:25;20.44;81.74
65573;SHT30;52214;50.940;13.996;2022-07-22T06:57:51;20.51;81.70
65573;SHT30;52214;50.940;13.996;2022-07-22T07:00:17;20.65;81.34
65573;SHT30;52214;50.940;13.996;2022-07-22T07:02:42;20.82;80.87
65573;SHT30;52214;50.940;13.996;2022-07-22T07:05:08;20.82;80.57
65573;SHT30;52214;50.940;13.996;2022-07-22T07:07:35;21.03;79.42
65573;SHT30;52214;50.940;13.996;2022-07-22T07:10:00;21.11;78.17
65573;SHT30;52214;50.940;13.996;2022-07-22T07:12:26;21.03;78.07
65573;SHT30;52214;50.940;13.996;2022-07-22T07:14:51;21.27;78.46
65573;SHT30;52214;50.940;13.996;2022-07-22T07:17:17;21.04;77.69
65573;SHT30;52214;50.940;13.996;2022-07-22T07:19:42;21.30;76.02
65573;SHT30;52214;50.940;13.996;2022-07-22T07:22:08;21.62;76.29
65573;SHT30;52214;50.940;13.996;2022-07-22T07:24:33;21.86;74.16
65573;SHT30;52214;50.940;13.996;2022-07-22T07:26:59;21.73;75.19
65573;SHT30;52214;50.940;13.996;2022-07-22T07:29:24;21.88;75.84
65573;SHT30;52214;50.940;13.996;2022-07-22T07:31:49;21.59;75.07
65573;SHT30;52214;50.940;13.996;2022-07-22T07:34:15;21.90;75.63
65573;SHT30;52214;50.940;13.996;2022-07-22T07:36:40;22.45;73.39
65573;SHT30;52214;50.940;13.996;2022-07-22T07:39:06;22.13;73.95
65573;SHT30;52214;50.940;13.996;2022-07-22T07:41:32;22.47;74.84
65573;SHT30;52214;50.940;13.996;2022-07-22T07:43:57;22.89;74.04
65573;SHT30;52214;50.940;13.996;2022-07-22T07:46:23;23.09;72.48
65573;SHT30;52214;50.940;13.996;2022-07-22T07:48:48;23.40;71.50
65573;SHT30;52214;50.940;13.996;2022-07-22T07:51:14;23.50;69.50
65573;SHT30;52214;50.940;13.996;2022-07-22T07:53:40;23.52;69.65
65573;SHT30;52214;50.940;13.996;2022-07-22T07:56:05;24.02;69.81
65573;SHT30;52214;50.940;13.996;2022-07-22T07:58:31;23.99;68.31
65573;SHT30;52214;50.940;13.996;2022-07-22T08:00:56;24.03;68.56
65573;SHT30;52214;50.940;13.996;2022-07-22T08:03:22;24.21;67.84
65573;SHT30;52214;50.940;13.996;2022-07-22T08:05:47;23.63;67.86
65573;SHT30;52214;50.940;13.996;2022-07-22T08:08:13;23.89;66.63
65573;SHT30;52214;50.940;13.996;2022-07-22T08:10:38;24.12;68.58
65573;SHT30;52214;50.940;13.996;2022-07-22T08:13:04;24.37;67.51
65573;SHT30;52214;50.940;13.996;2022-07-22T08:15:30;24.82;67.18
65573;SHT30;52214;50.940;13.996;2022-07-22T08:17:57;24.93;65.90
65573;SHT30;52214;50.940;13.996;2022-07-22T08:20:23;24.96;66.74
65573;SHT30;52214;50.940;13.996;2022-07-22T08:22:50;24.68;64.77
65573;SHT30;52214;50.940;13.996;2022-07-22T08:25:16;25.15;65.40
65573;SHT30;52214;50.940;13.996;2022-07-22T08:27:42;25.17;65.26
65573;SHT30;52214;50.940;13.996;2022-07-22T08:30:07;24.64;64.73
65573;SHT30;52214;50.940;13.996;2022-07-22T08:32:34;25.52;64.73
65573;SHT30;52214;50.940;13.996;2022-07-22T08:35:00;25.54;63.44
65573;SHT30;52214;50.940;13.996;2022-07-22T08:37:26;25.86;62.83
65573;SHT30;52214;50.940;13.996;2022-07-22T08:39:51;26.30;60.66
65573;SHT30;52214;50.940;13.996;2022-07-22T08:42:21;26.60;60.07
65573;SHT30;52214;50.940;13.996;2022-07-22T08:44:48;26.37;60.76
65573;SHT30;52214;50.940;13.996;2022-07-22T08:47:14;26.23;61.63
65573;SHT30;52214;50.940;13.996;2022-07-22T08:49:39;26.43;60.01
65573;SHT30;52214;50.940;13.996;2022-07-22T08:52:05;26.57;60.62
65573;SHT30;52214;50.940;13.996;2022-07-22T08:54:31;27.06;59.35
65573;SHT30;52214;50.940;13.996;2022-07-22T08:56:56;27.19;58.07
65573;SHT30;52214;50.940;13.996;2022-07-22T08:59:22;26.52;57.33
65573;SHT30;52214;50.940;13.996;2022-07-22T09:02:05;27.03;57.59
65573;SHT30;52214;50.940;13.996;2022-07-22T09:05:07;27.49;58.02
65573;SHT30;52214;50.940;13.996;2022-07-22T09:07:39;27.76;56.77
65573;SHT30;52214;50.940;13.996;2022-07-22T09:10:09;27.88;56.40
65573;SHT30;52214;50.940;13.996;2022-07-22T09:12:53;28.08;55.83
65573;SHT30;52214;50.940;13.996;2022-07-22T09:15:46;27.82;55.76
65573;SHT30;52214;50.940;13.996;2022-07-22T09:18:12;28.46;54.12
65573;SHT30;52214;50.940;13.996;2022-07-22T09:20:38;28.72;53.41
65573;SHT30;52214;50.940;13.996;2022-07-22T09:23:16;28.23;52.76
65573;SHT30;52214;50.940;13.996;2022-07-22T09:25:48;27.82;54.34
65573;SHT30;52214;50.940;13.996;2022-07-22T09:28:19;28.50;54.16
65573;SHT30;52214;50.940;13.996;2022-07-22T09:30:50;28.61;53.81
65573;SHT30;52214;50.940;13.996;2022-07-22T09:33:16;28.36;54.73
65573;SHT30;52214;50.940;13.996;2022-07-22T09:35:42;28.60;54.02
65573;SHT30;52214;50.940;13.996;2022-07-22T09:38:10;28.47;53.10
65573;SHT30;52214;50.940;13.996;2022-07-22T09:40:41;28.37;52.06
65573;SHT30;52214;50.940;13.996;2022-07-22T09:43:13;28.53;52.45
65573;SHT30;52214;50.940;13.996;2022-07-22T09:45:55;29.49;52.07
65573;SHT30;52214;50.940;13.996;2022-07-22T09:48:23;29.91;51.87
65573;SHT30;52214;50.940;13.996;2022-07-22T09:50:50;29.19;52.39
65573;SHT30;52214;50.940;13.996;2022-07-22T09:53:18;28.72;53.04
65573;SHT30;52214;50.940;13.996;2022-07-22T09:55:44;27.87;55.04
65573;SHT30;52214;50.940;13.996;2022-07-22T09:58:09;28.53;54.87
65573;SHT30;52214;50.940;13.996;2022-07-22T10:00:37;29.76;50.76
65573;SHT30;52214;50.940;13.996;2022-07-22T10:03:06;30.28;49.66
65573;SHT30;52214;50.940;13.996;2022-07-22T10:05:37;30.42;49.08
65573;SHT30;52214;50.940;13.996;2022-07-22T10:08:05;29.84;50.39
65573;SHT30;52214;50.940;13.996;2022-07-22T10:10:33;29.85;50.06
65573;SHT30;52214;50.940;13.996;2022-07-22T10:13:00;30.59;49.51
65573;SHT30;52214;50.940;13.996;2022-07-22T10:15:27;31.10;47.67
65573;SHT30;52214;50.940;13.996;2022-07-22T10:17:56;31.02;47.40
65573;SHT30;52214;50.940;13.996;2022-07-22T10:20:25;30.80;47.47
65573;SHT30;52214;50.940;13.996;2022-07-22T10:23:00;31.12;46.12
65573;SHT30;52214;50.940;13.996;2022-07-22T10:25:29;31.12;44.86
65573;SHT30;52214;50.940;13.996;2022-07-22T10:28:03;31.10;46.74
65573;SHT30;52214;50.940;13.996;2022-07-22T10:30:30;31.67;45.43
65573;SHT30;52214;50.940;13.996;2022-07-22T10:35:32;32.67;45.00
65573;SHT30;52214;50.940;13.996;2022-07-22T10:38:01;33.74;43.17
65573;SHT30;52214;50.940;13.996;2022-07-22T10:40:30;32.43;42.63
65573;SHT30;52214;50.940;13.996;2022-07-22T10:43:03;32.72;42.18
65573;SHT30;52214;50.940;13.996;2022-07-22T10:45:37;32.94;42.49
65573;SHT30;52214;50.940;13.996;2022-07-22T10:48:04;32.77;41.29
65573;SHT30;52214;50.940;13.996;2022-07-22T10:53:10;32.18;42.53
65573;SHT30;52214;50.940;13.996;2022-07-22T10:55:37;31.14;43.63
65573;SHT30;52214;50.940;13.996;2022-07-22T11:01:03;32.67;42.35
65573;SHT30;52214;50.940;13.996;2022-07-22T11:03:30;32.29;42.64
65573;SHT30;52214;50.940;13.996;2022-07-22T11:05:56;32.22;42.61
65573;SHT30;52214;50.940;13.996;2022-07-22T11:08:22;32.86;41.56
65573;SHT30;52214;50.940;13.996;2022-07-22T11:10:49;33.34;40.66
65573;SHT30;52214;50.940;13.996;2022-07-22T11:13:31;33.56;40.32
65573;SHT30;52214;50.940;13.996;2022-07-22T11:16:31;33.68;40.25
65573;SHT30;52214;50.940;13.996;2022-07-22T11:19:01;33.68;39.14
65573;SHT30;52214;50.940;13.996;2022-07-22T11:21:30;33.90;38.71
65573;SHT30;52214;50.940;13.996;2022-07-22T11:23:58;32.84;40.60
65573;SHT30;52214;50.940;13.996;2022-07-22T11:26:37;32.63;41.49
65573;SHT30;52214;50.940;13.996;2022-07-22T11:29:04;32.39;41.80
65573;SHT30;52214;50.940;13.996;2022-07-22T11:31:30;31.90;42.25
65573;SHT30;52214;50.940;13.996;2022-07-22T11:34:06;32.24;41.83
65573;SHT30;52214;50.940;13.996;2022-07-22T11:36:34;33.77;39.41
65573;SHT30;52214;50.940;13.996;2022-07-22T11:39:00;33.77;40.85
65573;SHT30;52214;50.940;13.996;2022-07-22T11:41:29;34.07;38.40
65573;SHT30;52214;50.940;13.996;2022-07-22T11:43:55;34.21;39.08
65573;SHT30;52214;50.940;13.996;2022-07-22T11:46:21;34.40;37.92
65573;SHT30;52214;50.940;13.996;2022-07-22T11:48:48;33.51;39.16
65573;SHT30;52214;50.940;13.996;2022-07-22T11:51:14;33.01;40.08
65573;SHT30;52214;50.940;13.996;2022-07-22T11:53:41;33.55;39.28
65573;SHT30;52214;50.940;13.996;2022-07-22T11:56:09;34.18;38.33
65573;SHT30;52214;50.940;13.996;2022-07-22T11:58:40;34.72;37.74
65573;SHT30;52214;50.940;13.996;2022-07-22T12:01:11;34.69;37.32
65573;SHT30;52214;50.940;13.996;2022-07-22T12:03:39;35.77;36.26
65573;SHT30;52214;50.940;13.996;2022-07-22T12:06:11;35.86;35.97
65573;SHT30;52214;50.940;13.996;2022-07-22T12:08:43;36.22;35.26
65573;SHT30;52214;50.940;13.996;2022-07-22T12:11:11;35.52;36.03
65573;SHT30;52214;50.940;13.996;2022-07-22T12:13:44;36.68;35.51
65573;SHT30;52214;50.940;13.996;2022-07-22T12:16:21;36.13;35.17
65573;SHT30;52214;50.940;13.996;2022-07-22T12:19:09;36.66;34.89
65573;SHT30;52214;50.940;13.996;2022-07-22T12:21:37;36.85;34.43
65573;SHT30;52214;50.940;13.996;2022-07-22T12:24:07;36.66;34.45
65573;SHT30;52214;50.940;13.996;2022-07-22T12:26:48;37.09;33.96
65573;SHT30;52214;50.940;13.996;2022-07-22T12:29:27;37.40;34.40
65573;SHT30;52214;50.940;13.996;2022-07-22T12:35:03;37.21;32.61
65573;SHT30;52214;50.940;13.996;2022-07-22T12:37:40;37.94;33.17
65573;SHT30;52214;50.940;13.996;2022-07-22T12:40:07;37.77;33.21
65573;SHT30;52214;50.940;13.996;2022-07-22T12:42:39;37.39;32.64
65573;SHT30;52214;50.940;13.996;2022-07-22T12:45:27;37.25;33.24
65573;SHT30;52214;50.940;13.996;2022-07-22T12:47:57;38.36;32.64
65573;SHT30;52214;50.940;13.996;2022-07-22T12:50:38;37.23;32.35
65573;SHT30;52214;50.940;13.996;2022-07-22T12:53:07;38.04;32.62
65573;SHT30;52214;50.940;13.996;2022-07-22T12:55:36;39.00;31.48
65573;SHT30;52214;50.940;13.996;2022-07-22T12:58:03;38.46;31.63
65573;SHT30;52214;50.940;13.996;2022-07-22T13:00:31;38.66;31.20
65573;SHT30;52214;50.940;13.996;2022-07-22T13:02:57;38.95;30.94
65573;SHT30;52214;50.940;13.996;2022-07-22T13:05:26;38.84;31.12
65573;SHT30;52214;50.940;13.996;2022-07-22T13:07:52;39.39;31.42
65573;SHT30;52214;50.940;13.996;2022-07-22T13:10:19;39.04;31.11
65573;SHT30;52214;50.940;13.996;2022-07-22T13:12:45;37.64;31.79
65573;SHT30;52214;50.940;13.996;2022-07-22T13:15:11;38.23;32.13
65573;SHT30;52214;50.940;13.996;2022-07-22T13:17:36;39.52;30.20
65573;SHT30;52214;50.940;13.996;2022-07-22T13:20:03;38.78;31.37
65573;SHT30;52214;50.940;13.996;2022-07-22T13:22:29;38.98;30.87
65573;SHT30;52214;50.940;13.996;2022-07-22T13:24:55;38.73;31.54
65573;SHT30;52214;50.940;13.996;2022-07-22T13:27:21;39.86;29.73
65573;SHT30;52214;50.940;13.996;2022-07-22T13:29:46;39.46;30.55
65573;SHT30;52214;50.940;13.996;2022-07-22T13:32:12;39.64;30.40
65573;SHT30;52214;50.940;13.996;2022-07-22T13:34:37;38.84;30.59
65573;SHT30;52214;50.940;13.996;2022-07-22T13:37:03;39.62;30.62
65573;SHT30;52214;50.940;13.996;2022-07-22T13:39:28;39.91;30.14
65573;SHT30;52214;50.940;13.996;2022-07-22T13:41:54;40.32;29.53
65573;SHT30;52214;50.940;13.996;2022-07-22T13:44:20;39.84;29.51
65573;SHT30;52214;50.940;13.996;2022-07-22T13:46:45;40.25;29.29
65573;SHT30;52214;50.940;13.996;2022-07-22T13:49:12;40.14;29.20
65573;SHT30;52214;50.940;13.996;2022-07-22T13:51:38;39.84;29.61
65573;SHT30;52214;50.940;13.996;2022-07-22T13:54:03;39.12;30.79
65573;SHT30;52214;50.940;13.996;2022-07-22T13:56:31;39.90;30.01
65573;SHT30;52214;50.940;13.996;2022-07-22T13:58:58;41.45;27.67
65573;SHT30;52214;50.940;13.996;2022-07-22T14:01:24;38.33;30.51
65573;SHT30;52214;50.940;13.996;2022-07-22T14:03:50;40.27;29.20
65573;SHT30;52214;50.940;13.996;2022-07-22T14:06:16;39.91;29.41
65573;SHT30;52214;50.940;13.996;2022-07-22T14:08:41;40.02;29.16
65573;SHT30;52214;50.940;13.996;2022-07-22T14:11:07;40.22;29.13
65573;SHT30;52214;50.940;13.996;2022-07-22T14:13:33;39.41;29.50
65573;SHT30;52214;50.940;13.996;2022-07-22T14:15:58;37.13;31.26
65573;SHT30;52214;50.940;13.996;2022-07-22T14:18:43;39.98;29.00
65573;SHT30;52214;50.940;13.996;2022-07-22T14:21:09;41.80;27.14
65573;SHT30;52214;50.940;13.996;2022-07-22T14:23:34;41.20;28.22
65573;SHT30;52214;50.940;13.996;2022-07-22T14:26:00;40.24;28.91
65573;SHT30;52214;50.940;13.996;2022-07-22T14:28:25;39.35;29.22
65573;SHT30;52214;50.940;13.996;2022-07-22T14:30:51;40.05;29.30
65573;SHT30;52214;50.940;13.996;2022-07-22T14:33:16;39.35;29.93
65573;SHT30;52214;50.940;13.996;2022-07-22T14:35:42;40.07;29.05
65573;SHT30;52214;50.940;13.996;2022-07-22T14:38:07;40.78;29.10
65573;SHT30;52214;50.940;13.996;2022-07-22T14:40:33;42.35;26.19
65573;SHT30;52214;50.940;13.996;2022-07-22T14:42:58;41.49;26.89
65573;SHT30;52214;50.940;13.996;2022-07-22T14:45:24;40.86;27.79
65573;SHT30;52214;50.940;13.996;2022-07-22T14:47:49;40.28;27.69
65573;SHT30;52214;50.940;13.996;2022-07-22T14:50:14;40.96;27.92
65573;SHT30;52214;50.940;13.996;2022-07-22T14:52:40;41.51;27.51
65573;SHT30;52214;50.940;13.996;2022-07-22T14:55:06;43.54;25.41
65573;SHT30;52214;50.940;13.996;2022-07-22T14:57:31;42.20;26.67
65573;SHT30;52214;50.940;13.996;2022-07-22T14:59:57;42.55;26.46
65573;SHT30;52214;50.940;13.996;2022-07-22T15:02:22;40.04;28.90
65573;SHT30;52214;50.940;13.996;2022-07-22T15:04:50;40.27;28.12
65573;SHT30;52214;50.940;13.996;2022-07-22T15:07:15;41.37;27.89
65573;SHT30;52214;50.940;13.996;2022-07-22T15:09:41;42.59;26.52
65573;SHT30;52214;50.940;13.996;2022-07-22T15:12:06;42.69;26.38
65573;SHT30;52214;50.940;13.996;2022-07-22T15:14:32;41.68;26.60
65573;SHT30;52214;50.940;13.996;2022-07-22T15:16:57;41.58;26.60
65573;SHT30;52214;50.940;13.996;2022-07-22T15:19:23;41.00;27.86
65573;SHT30;52214;50.940;13.996;2022-07-22T15:21:48;40.19;27.49
65573;SHT30;52214;50.940;13.996;2022-07-22T15:24:14;39.49;29.10
65573;SHT30;52214;50.940;13.996;2022-07-22T15:26:39;39.41;29.68
65573;SHT30;52214;50.940;13.996;2022-07-22T15:29:05;39.32;29.61